createdAt,value
2019-02-06T00:01:18.139Z,-0.04
2019-02-06T00:03:44.870Z,0.38
2019-02-06T00:06:11.710Z,0.57
2019-02-06T00:08:38.554Z,0.08
2019-02-06T00:11:05.394Z,0.48
2019-02-06T00:13:32.258Z,0.48
2019-02-06T00:15:59.066Z,-0.22
2019-02-06T00:18:25.907Z,0.32
2019-02-06T00:20:52.742Z,0.45
2019-02-06T00:23:19.566Z,-0.21
2019-02-06T00:25:46.382Z,0.42
2019-02-06T00:28:13.262Z,0.61
2019-02-06T00:30:40.088Z,-0.02
2019-02-06T00:33:06.935Z,0.67
2019-02-06T00:35:33.759Z,0.12
2019-02-06T00:38:00.658Z,0.40
2019-02-06T00:40:27.527Z,0.53
2019-02-06T00:42:54.358Z,-0.20
2019-02-06T00:45:21.197Z,0.19
2019-02-06T00:47:48.014Z,0.25
2019-02-06T00:50:14.869Z,-0.30
2019-02-06T00:52:41.694Z,0.03
2019-02-06T00:55:08.813Z,0.08
2019-02-06T00:57:35.633Z,-0.37
2019-02-06T01:00:02.657Z,0.07
2019-02-06T01:02:29.478Z,-0.60
2019-02-06T01:04:56.313Z,-0.23
2019-02-06T01:07:23.202Z,0.16
2019-02-06T01:09:50.026Z,-0.44
2019-02-06T01:12:17.070Z,-0.11
2019-02-06T01:14:43.901Z,-0.11
2019-02-06T01:17:10.774Z,-0.54
2019-02-06T01:19:37.599Z,-0.08
2019-02-06T01:22:04.471Z,-0.08
2019-02-06T01:24:31.289Z,-0.13
2019-02-06T01:26:58.139Z,-0.70
2019-02-06T01:29:24.958Z,-0.39
2019-02-06T01:31:51.803Z,-0.36
2019-02-06T01:34:18.627Z,-0.90
2019-02-06T01:36:45.464Z,-0.52
2019-02-06T01:39:12.955Z,-1.08
2019-02-06T01:41:39.833Z,-0.78
2019-02-06T01:44:06.665Z,-0.50
2019-02-06T01:46:33.574Z,-0.29
2019-02-06T01:49:00.410Z,-0.34
2019-02-06T01:51:27.265Z,-1.07
2019-02-06T01:53:54.114Z,-0.64
2019-02-06T01:56:20.958Z,-0.26
2019-02-06T01:58:47.794Z,-0.81
2019-02-06T02:01:14.642Z,-0.37
2019-02-06T02:03:41.490Z,-0.30
2019-02-06T02:06:08.334Z,-0.85
2019-02-06T02:08:36.157Z,-0.57
2019-02-06T02:11:03.004Z,-0.63
2019-02-06T02:13:29.825Z,-1.17
2019-02-06T02:15:56.698Z,-0.88
2019-02-06T02:18:23.553Z,-0.73
2019-02-06T02:20:50.378Z,-1.12
2019-02-06T02:23:17.244Z,-0.73
2019-02-06T02:25:44.070Z,-0.68
2019-02-06T02:28:10.919Z,-1.11
2019-02-06T02:30:41.681Z,-0.85
2019-02-06T02:33:08.521Z,-0.71
2019-02-06T02:35:35.370Z,-0.65
2019-02-06T02:38:02.235Z,-0.43
2019-02-06T02:40:29.053Z,-0.89
2019-02-06T02:42:55.867Z,-0.50
2019-02-06T02:45:22.720Z,-0.57
2019-02-06T02:47:49.542Z,-1.13
2019-02-06T02:50:16.373Z,-0.60
2019-02-06T02:52:43.300Z,-0.41
2019-02-06T02:55:10.116Z,-1.05
2019-02-06T02:57:36.946Z,-0.80
2019-02-06T03:00:06.890Z,-0.86
2019-02-06T03:02:42.392Z,-1.55
2019-02-06T03:05:13.090Z,-1.17
2019-02-06T03:07:39.797Z,-0.91
2019-02-06T03:10:07.390Z,-1.44
2019-02-06T03:12:34.218Z,-1.06
2019-02-06T03:15:01.216Z,-1.72
2019-02-06T03:17:27.910Z,-1.64
2019-02-06T03:19:54.758Z,-1.46
2019-02-06T03:22:21.577Z,-1.87
2019-02-06T03:24:48.455Z,-1.44
2019-02-06T03:27:15.294Z,-1.43
2019-02-06T03:29:42.246Z,-2.04
2019-02-06T03:32:09.076Z,-1.78
2019-02-06T03:34:35.924Z,-2.24
2019-02-06T03:37:02.739Z,-1.67
2019-02-06T03:39:29.635Z,-1.40
2019-02-06T03:41:56.463Z,-1.94
2019-02-06T03:44:23.281Z,-1.28
2019-02-06T03:46:50.122Z,-1.22
2019-02-06T03:49:16.942Z,-1.76
2019-02-06T03:51:43.781Z,-1.31
2019-02-06T03:54:10.603Z,-1.03
2019-02-06T03:56:37.442Z,-1.60
2019-02-06T03:59:04.260Z,-1.46
2019-02-06T04:01:31.112Z,-1.44
2019-02-06T04:03:57.935Z,-1.98
2019-02-06T04:06:24.807Z,-1.48
2019-02-06T04:08:51.986Z,-1.28
2019-02-06T04:11:18.862Z,-1.87
2019-02-06T04:13:45.706Z,-1.26
2019-02-06T04:16:12.552Z,-1.23
2019-02-06T04:18:39.406Z,-1.98
2019-02-06T04:21:06.242Z,-1.39
2019-02-06T04:23:33.080Z,-1.36
2019-02-06T04:25:59.928Z,-2.02
2019-02-06T04:28:26.743Z,-1.60
2019-02-06T04:30:53.599Z,-1.51
2019-02-06T04:33:20.422Z,-2.24
2019-02-06T04:35:47.253Z,-1.76
2019-02-06T04:38:14.090Z,-1.51
2019-02-06T04:40:40.962Z,-1.88
2019-02-06T04:43:07.778Z,-1.45
2019-02-06T04:45:34.631Z,-1.23
2019-02-06T04:48:01.450Z,-1.84
2019-02-06T04:50:28.285Z,-1.48
2019-02-06T04:52:55.117Z,-1.54
2019-02-06T04:55:21.955Z,-2.12
2019-02-06T04:57:48.782Z,-1.74
2019-02-06T05:00:17.984Z,-1.69
2019-02-06T05:02:44.833Z,-2.28
2019-02-06T05:05:11.650Z,-1.82
2019-02-06T05:07:38.497Z,-1.80
2019-02-06T05:10:07.070Z,-2.37
2019-02-06T05:12:33.926Z,-1.92
2019-02-06T05:15:00.792Z,-1.72
2019-02-06T05:17:27.703Z,-2.17
2019-02-06T05:19:54.535Z,-1.91
2019-02-06T05:22:21.507Z,-1.58
2019-02-06T05:24:48.318Z,-2.16
2019-02-06T05:27:15.175Z,-1.76
2019-02-06T05:29:42.006Z,-1.53
2019-02-06T05:32:08.862Z,-2.07
2019-02-06T05:34:35.710Z,-1.55
2019-02-06T05:37:02.546Z,-1.41
2019-02-06T05:39:29.374Z,-2.03
2019-02-06T05:41:56.233Z,-1.35
2019-02-06T05:44:23.054Z,-1.34
2019-02-06T05:46:50.001Z,-1.99
2019-02-06T05:49:16.744Z,-1.55
2019-02-06T05:51:43.571Z,-1.42
2019-02-06T05:54:10.430Z,-2.03
2019-02-06T05:56:37.398Z,-1.54
2019-02-06T05:59:04.231Z,-1.49
2019-02-06T06:01:31.074Z,-2.20
2019-02-06T06:03:57.888Z,-1.62
2019-02-06T06:06:24.748Z,-1.58
2019-02-06T06:08:51.594Z,-2.26
2019-02-06T06:11:18.483Z,-1.78
2019-02-06T06:13:45.282Z,-1.75
2019-02-06T06:16:12.122Z,-2.49
2019-02-06T06:18:39.095Z,-2.22
2019-02-06T06:21:05.910Z,-1.99
2019-02-06T06:23:32.746Z,-2.61
2019-02-06T06:25:59.573Z,-2.16
2019-02-06T06:28:26.411Z,-1.94
2019-02-06T06:30:53.266Z,-2.27
2019-02-06T06:33:20.126Z,-1.80
2019-02-06T06:35:46.978Z,-1.71
2019-02-06T06:38:13.787Z,-2.34
2019-02-06T06:40:40.602Z,-1.77
2019-02-06T06:43:07.463Z,-1.73
2019-02-06T06:45:34.270Z,-2.20
2019-02-06T06:48:01.111Z,-1.91
2019-02-06T06:50:28.007Z,-1.53
2019-02-06T06:52:54.869Z,-2.05
2019-02-06T06:55:21.690Z,-1.53
2019-02-06T06:57:48.757Z,-1.63
2019-02-06T07:00:18.927Z,-2.04
2019-02-06T07:02:45.778Z,-1.55
2019-02-06T07:05:12.661Z,-1.37
2019-02-06T07:07:39.514Z,-1.81
2019-02-06T07:10:06.543Z,-1.37
2019-02-06T07:12:33.404Z,-1.04
2019-02-06T07:15:00.413Z,-1.54
2019-02-06T07:17:27.077Z,-1.17
2019-02-06T07:19:53.914Z,-1.03
2019-02-06T07:22:20.772Z,-1.31
2019-02-06T07:24:47.602Z,-0.98
2019-02-06T07:27:14.470Z,-0.82
2019-02-06T07:29:41.309Z,-1.09
2019-02-06T07:32:08.178Z,-0.77
2019-02-06T07:34:35.042Z,-0.62
2019-02-06T07:37:01.866Z,-0.88
2019-02-06T07:39:28.719Z,-0.56
2019-02-06T07:41:55.553Z,-0.48
2019-02-06T07:44:22.474Z,-0.72
2019-02-06T07:46:49.312Z,-0.41
2019-02-06T07:49:16.229Z,-0.48
2019-02-06T07:51:43.082Z,-0.15
2019-02-06T07:54:09.919Z,-0.39
2019-02-06T07:56:36.738Z,0.05
2019-02-06T07:59:03.706Z,0.28
2019-02-06T08:01:30.533Z,-0.09
2019-02-06T08:03:57.374Z,0.19
2019-02-06T08:06:24.206Z,0.53
2019-02-06T08:08:51.057Z,0.23
2019-02-06T08:11:18.010Z,0.48
2019-02-06T08:13:44.862Z,0.50
2019-02-06T08:16:11.718Z,0.11
2019-02-06T08:18:38.754Z,0.48
2019-02-06T08:21:05.582Z,0.74
2019-02-06T08:23:32.444Z,0.28
2019-02-06T08:25:59.290Z,0.75
2019-02-06T08:28:26.153Z,1.01
2019-02-06T08:30:53.002Z,0.69
2019-02-06T08:33:19.909Z,0.64
2019-02-06T08:35:46.732Z,1.29
2019-02-06T08:38:13.590Z,1.01
2019-02-06T08:40:40.427Z,1.15
2019-02-06T08:43:07.273Z,1.56
2019-02-06T08:45:34.102Z,1.07
2019-02-06T08:48:00.942Z,1.51
2019-02-06T08:50:27.799Z,1.33
2019-02-06T08:52:54.621Z,1.39
2019-02-06T08:55:23.382Z,1.84
2019-02-06T08:57:50.214Z,1.66
2019-02-06T09:00:19.994Z,1.41
2019-02-06T09:02:46.851Z,1.62
2019-02-06T09:05:13.698Z,1.74
2019-02-06T09:07:40.526Z,1.65
2019-02-06T09:10:09.699Z,1.64
2019-02-06T09:12:36.554Z,1.28
2019-02-06T09:15:03.978Z,1.81
2019-02-06T09:17:30.838Z,2.09
2019-02-06T09:19:57.698Z,2.06
2019-02-06T09:22:24.542Z,2.47
2019-02-06T09:24:51.385Z,2.05
2019-02-06T09:27:18.210Z,2.26
2019-02-06T09:29:45.064Z,2.08
2019-02-06T09:32:11.894Z,2.29
2019-02-06T09:34:38.752Z,2.21
2019-02-06T09:37:05.576Z,2.34
2019-02-06T09:39:32.431Z,2.45
2019-02-06T09:41:59.279Z,2.43
2019-02-06T09:44:26.130Z,2.49
2019-02-06T09:46:52.959Z,2.66
2019-02-06T09:49:19.802Z,2.76
2019-02-06T09:51:46.629Z,2.22
2019-02-06T09:54:13.478Z,2.87
2019-02-06T09:56:40.313Z,2.31
2019-02-06T09:59:07.178Z,2.25
2019-02-06T10:01:34.013Z,2.82
2019-02-06T10:04:00.853Z,2.92
2019-02-06T10:06:27.690Z,2.91
2019-02-06T10:08:54.542Z,2.97
2019-02-06T10:11:21.374Z,2.97
2019-02-06T10:13:48.202Z,3.31
2019-02-06T10:16:15.161Z,2.65
2019-02-06T10:18:41.993Z,2.84
2019-02-06T10:21:08.993Z,3.45
2019-02-06T10:23:35.830Z,3.23
2019-02-06T10:26:02.679Z,3.12
2019-02-06T10:28:29.509Z,3.98
2019-02-06T10:30:56.353Z,3.71
2019-02-06T10:33:23.182Z,4.26
2019-02-06T10:35:52.255Z,4.18
2019-02-06T10:38:16.851Z,3.89
2019-02-06T10:40:43.694Z,3.96
2019-02-06T10:43:10.534Z,3.87
2019-02-06T10:45:37.390Z,3.80
2019-02-06T10:48:04.618Z,3.85
2019-02-06T10:50:33.482Z,3.95
2019-02-06T10:53:00.328Z,4.10
2019-02-06T10:55:27.186Z,4.11
2019-02-06T10:57:54.013Z,4.20
2019-02-06T11:00:24.630Z,4.33
2019-02-06T11:02:51.474Z,4.21
2019-02-06T11:05:18.330Z,4.25
2019-02-06T11:07:46.206Z,4.35
2019-02-06T11:10:12.062Z,4.52
2019-02-06T11:12:38.903Z,4.70
2019-02-06T11:15:06.526Z,4.86
2019-02-06T11:17:33.371Z,4.97
2019-02-06T11:20:00.341Z,5.05
2019-02-06T11:22:27.078Z,4.87
2019-02-06T11:24:53.933Z,5.16
2019-02-06T11:27:20.767Z,5.19
2019-02-06T11:29:48.527Z,4.96
2019-02-06T11:32:14.503Z,4.96
2019-02-06T11:34:41.358Z,5.17
2019-02-06T11:37:08.206Z,5.33
2019-02-06T11:39:35.074Z,5.21
2019-02-06T11:42:01.911Z,5.64
2019-02-06T11:44:28.766Z,5.70
2019-02-06T11:46:55.691Z,5.93
2019-02-06T11:49:25.917Z,5.90
2019-02-06T11:51:52.755Z,5.87
2019-02-06T11:54:19.619Z,5.95
2019-02-06T11:56:46.468Z,5.92
2019-02-06T11:59:13.411Z,6.09
2019-02-06T12:01:44.003Z,6.08
2019-02-06T12:04:10.862Z,6.03
2019-02-06T12:06:37.750Z,6.11
2019-02-06T12:09:10.023Z,6.13
2019-02-06T12:11:36.841Z,6.72
2019-02-06T12:14:03.698Z,6.50
2019-02-06T12:16:30.633Z,6.34
2019-02-06T12:18:57.434Z,6.63
2019-02-06T12:21:24.298Z,6.54
2019-02-06T12:23:51.398Z,6.64
2019-02-06T12:26:18.278Z,6.47
2019-02-06T12:28:45.109Z,6.36
2019-02-06T12:31:11.957Z,6.83
2019-02-06T12:33:38.798Z,6.73
2019-02-06T12:36:05.670Z,6.81
2019-02-06T12:38:32.514Z,6.62
2019-02-06T12:40:59.370Z,6.45
2019-02-06T12:43:26.198Z,6.75
2019-02-06T12:45:53.052Z,7.19
2019-02-06T12:48:19.913Z,7.00
2019-02-06T12:50:47.645Z,7.52
2019-02-06T12:53:14.495Z,7.18
2019-02-06T12:55:41.383Z,7.00
2019-02-06T12:58:08.238Z,7.17
2019-02-06T13:00:35.761Z,7.13
2019-02-06T13:03:02.649Z,6.71
2019-02-06T13:05:29.803Z,6.68
2019-02-06T13:07:56.651Z,6.52
2019-02-06T13:10:33.532Z,6.45
2019-02-06T13:12:50.392Z,6.98
2019-02-06T13:15:17.263Z,6.55
2019-02-06T13:17:44.130Z,6.59
2019-02-06T13:20:13.722Z,6.55
2019-02-06T13:22:40.581Z,6.60
2019-02-06T13:25:07.925Z,6.61
2019-02-06T13:27:34.779Z,6.61
2019-02-06T13:30:01.655Z,6.33
2019-02-06T13:32:28.494Z,6.43
2019-02-06T13:34:55.370Z,7.11
2019-02-06T13:37:22.194Z,7.36
2019-02-06T13:39:49.062Z,7.10
2019-02-06T13:42:15.909Z,7.24
2019-02-06T13:44:42.775Z,7.35
2019-02-06T13:47:09.590Z,7.28
2019-02-06T13:49:36.461Z,7.28
2019-02-06T13:52:03.322Z,7.19
2019-02-06T13:54:30.226Z,6.83
2019-02-06T13:56:57.214Z,6.87
2019-02-06T13:59:23.934Z,6.85
2019-02-06T14:01:50.822Z,6.94
2019-02-06T14:04:17.674Z,6.88
2019-02-06T14:06:44.545Z,7.14
2019-02-06T14:09:22.233Z,7.40
2019-02-06T14:11:41.298Z,7.67
2019-02-06T14:14:08.147Z,7.25
2019-02-06T14:16:35.007Z,7.19
2019-02-06T14:19:01.858Z,7.33
2019-02-06T14:21:28.818Z,7.31
2019-02-06T14:24:03.254Z,7.25
2019-02-06T14:26:39.507Z,7.12
2019-02-06T14:29:32.130Z,7.00
2019-02-06T14:32:15.567Z,7.37
2019-02-06T14:34:45.378Z,7.26
2019-02-06T14:37:22.945Z,7.55
2019-02-06T14:40:00.477Z,7.21
2019-02-06T14:42:56.755Z,7.13
2019-02-06T14:45:42.751Z,7.04
2019-02-06T14:48:37.022Z,7.39
2019-02-06T14:51:36.927Z,7.35
2019-02-06T14:54:12.959Z,7.08
2019-02-06T14:56:56.250Z,6.89
2019-02-06T14:59:52.207Z,7.25
2019-02-06T15:03:01.066Z,6.86
2019-02-06T15:06:13.106Z,7.13
2019-02-06T15:09:09.268Z,6.84
2019-02-06T15:11:44.354Z,6.79
2019-02-06T15:14:45.978Z,6.92
2019-02-06T15:17:40.342Z,6.79
2019-02-06T15:20:18.655Z,6.84
2019-02-06T15:23:15.888Z,6.57
2019-02-06T15:26:02.019Z,6.44
2019-02-06T15:28:57.931Z,6.54
2019-02-06T15:31:50.061Z,6.53
2019-02-06T15:34:41.737Z,6.48
2019-02-06T15:37:35.810Z,6.39
2019-02-06T15:40:21.449Z,6.40
2019-02-06T15:43:04.802Z,6.25
2019-02-06T15:45:40.696Z,6.18
2019-02-06T15:48:18.734Z,6.17
2019-02-06T15:51:13.526Z,6.11
2019-02-06T15:53:58.439Z,5.87
2019-02-06T15:56:48.822Z,5.89
2019-02-06T15:59:26.499Z,5.82
2019-02-06T16:02:07.098Z,5.73
2019-02-06T16:05:14.630Z,5.56
2019-02-06T16:08:06.785Z,5.45
2019-02-06T16:10:45.358Z,5.49
2019-02-06T16:13:27.301Z,5.34
2019-02-06T16:16:16.832Z,5.10
2019-02-06T16:19:10.123Z,4.93
2019-02-06T16:21:53.182Z,4.66
2019-02-06T16:24:46.942Z,4.58
2019-02-06T16:27:27.446Z,4.48
2019-02-06T16:30:21.618Z,4.41
2019-02-06T16:33:14.654Z,4.50
2019-02-06T16:36:08.418Z,4.39
2019-02-06T16:38:47.881Z,4.97
2019-02-06T16:41:26.346Z,4.25
2019-02-06T16:44:19.526Z,3.92
2019-02-06T16:47:23.706Z,3.77
2019-02-06T16:50:02.230Z,3.67
2019-02-06T16:52:57.078Z,3.63
2019-02-06T16:55:49.730Z,3.59
2019-02-06T16:58:27.266Z,4.10
2019-02-06T17:01:19.153Z,3.36
2019-02-06T17:04:05.754Z,3.31
2019-02-06T17:06:44.873Z,3.01
2019-02-06T17:09:45.610Z,3.67
2019-02-06T17:12:24.146Z,3.85
2019-02-06T17:15:22.066Z,4.08
2019-02-06T17:18:22.254Z,3.62
2019-02-06T17:21:18.574Z,3.43
2019-02-06T17:24:02.550Z,3.27
2019-02-06T17:26:43.678Z,3.44
2019-02-06T17:29:28.824Z,3.92
2019-02-06T17:32:09.510Z,3.32
2019-02-06T17:34:53.670Z,3.23
2019-02-06T17:38:03.569Z,3.06
2019-02-06T17:40:45.861Z,2.77
2019-02-06T17:43:24.186Z,2.38
2019-02-06T17:46:04.306Z,2.40
2019-02-06T17:48:58.079Z,2.30
2019-02-06T17:51:39.377Z,2.11
2019-02-06T17:54:31.797Z,2.11
2019-02-06T17:56:58.683Z,2.16
2019-02-06T17:59:25.661Z,2.11
2019-02-06T18:01:53.649Z,2.13
2019-02-06T18:04:24.078Z,2.19
2019-02-06T18:06:50.923Z,2.44
2019-02-06T18:09:18.117Z,2.23
2019-02-06T18:11:46.235Z,1.78
2019-02-06T18:14:13.087Z,2.17
2019-02-06T18:16:39.931Z,2.24
2019-02-06T18:19:06.771Z,1.75
2019-02-06T18:21:33.621Z,2.31
2019-02-06T18:24:00.451Z,2.51
2019-02-06T18:26:27.309Z,1.95
2019-02-06T18:28:54.135Z,2.52
2019-02-06T18:31:20.990Z,1.95
2019-02-06T18:33:47.826Z,2.40
2019-02-06T18:36:14.673Z,2.52
2019-02-06T18:38:46.706Z,2.07
2019-02-06T18:41:08.398Z,1.95
2019-02-06T18:43:35.235Z,2.42
2019-02-06T18:46:02.094Z,1.94
2019-02-06T18:48:28.945Z,2.50
2019-02-06T18:50:55.795Z,2.06
2019-02-06T18:53:22.628Z,2.02
2019-02-06T18:55:51.218Z,1.63
2019-02-06T18:58:16.410Z,2.03
2019-02-06T19:00:43.282Z,2.17
2019-02-06T19:03:15.368Z,1.68
2019-02-06T19:05:42.424Z,2.15
2019-02-06T19:08:09.284Z,1.51
2019-02-06T19:10:36.183Z,1.52
2019-02-06T19:13:03.031Z,1.64
2019-02-06T19:15:29.905Z,1.84
2019-02-06T19:17:56.730Z,1.49
2019-02-06T19:20:23.639Z,1.99
2019-02-06T19:22:50.501Z,1.69
2019-02-06T19:25:17.375Z,1.86
2019-02-06T19:27:44.244Z,2.18
2019-02-06T19:30:16.591Z,1.49
2019-02-06T19:32:44.531Z,2.08
2019-02-06T19:35:10.295Z,1.57
2019-02-06T19:37:37.160Z,1.93
2019-02-06T19:40:04.395Z,2.08
2019-02-06T19:42:31.289Z,1.29
2019-02-06T19:44:58.122Z,1.75
2019-02-06T19:47:28.619Z,1.35
2019-02-06T19:49:51.811Z,1.76
2019-02-06T19:52:18.665Z,1.99
2019-02-06T19:54:46.213Z,1.46
2019-02-06T19:57:12.490Z,1.63
2019-02-06T19:59:39.327Z,1.56
2019-02-06T20:02:06.182Z,1.18
2019-02-06T20:04:33.084Z,1.61
2019-02-06T20:06:59.899Z,1.87
2019-02-06T20:09:26.738Z,1.61
2019-02-06T20:11:53.617Z,0.89
2019-02-06T20:14:20.462Z,1.40
2019-02-06T20:16:47.383Z,0.94
2019-02-06T20:19:14.258Z,1.47
2019-02-06T20:21:41.246Z,1.60
2019-02-06T20:24:08.087Z,1.09
2019-02-06T20:26:35.239Z,1.33
2019-02-06T20:29:02.580Z,1.22
2019-02-06T20:31:29.438Z,0.69
2019-02-06T20:33:56.587Z,1.00
2019-02-06T20:36:23.469Z,0.38
2019-02-06T20:38:51.956Z,1.03
2019-02-06T20:41:17.190Z,0.47
2019-02-06T20:43:44.040Z,0.98
2019-02-06T20:46:11.003Z,1.09
2019-02-06T20:48:37.834Z,0.87
2019-02-06T20:51:04.730Z,1.41
2019-02-06T20:53:31.570Z,0.80
2019-02-06T20:55:58.643Z,1.18
2019-02-06T20:58:25.527Z,0.84
2019-02-06T21:00:52.351Z,1.17
2019-02-06T21:03:19.201Z,1.26
2019-02-06T21:05:46.030Z,0.72
2019-02-06T21:08:12.887Z,1.04
2019-02-06T21:10:39.735Z,0.66
2019-02-06T21:13:06.713Z,0.99
2019-02-06T21:15:33.597Z,0.65
2019-02-06T21:18:00.447Z,0.93
2019-02-06T21:20:27.311Z,0.61
2019-02-06T21:22:54.170Z,0.83
2019-02-06T21:25:21.024Z,0.52
2019-02-06T21:27:48.757Z,0.82
2019-02-06T21:30:20.625Z,0.92
2019-02-06T21:32:48.300Z,0.38
2019-02-06T21:35:15.127Z,0.91
2019-02-06T21:37:41.983Z,0.49
2019-02-06T21:40:13.030Z,0.86
2019-02-06T21:42:39.874Z,1.03
2019-02-06T21:45:07.514Z,0.99
2019-02-06T21:47:34.363Z,0.25
2019-02-06T21:50:01.219Z,0.56
2019-02-06T21:52:28.076Z,0.09
2019-02-06T21:54:54.903Z,0.59
2019-02-06T21:57:21.758Z,0.49
2019-02-06T21:59:48.582Z,-0.11
2019-02-06T22:02:15.491Z,0.48
2019-02-06T22:04:42.326Z,0.68
2019-02-06T22:07:09.179Z,0.23
2019-02-06T22:09:36.001Z,0.69
2019-02-06T22:12:02.842Z,0.67
2019-02-06T22:14:29.938Z,-0.13
2019-02-06T22:16:56.790Z,0.33
2019-02-06T22:19:23.649Z,0.41
2019-02-06T22:21:50.478Z,0.53
2019-02-06T22:24:17.333Z,-0.15
2019-02-06T22:26:44.150Z,0.35
2019-02-06T22:29:11.034Z,-0.11
2019-02-06T22:31:37.862Z,0.41
2019-02-06T22:34:04.706Z,0.76
2019-02-06T22:36:31.530Z,-0.03
2019-02-06T22:38:58.851Z,0.37
2019-02-06T22:41:25.678Z,0.58
2019-02-06T22:43:52.635Z,-0.08
2019-02-06T22:46:19.466Z,0.40
2019-02-06T22:48:46.325Z,-0.20
2019-02-06T22:51:13.156Z,0.40
2019-02-06T22:53:39.995Z,-0.16
2019-02-06T22:56:06.814Z,0.42
2019-02-06T22:58:33.651Z,0.52
2019-02-06T23:01:23.910Z,-0.16
2019-02-06T23:03:50.771Z,0.27
2019-02-06T23:06:17.594Z,0.33
2019-02-06T23:08:44.443Z,-0.43
2019-02-06T23:11:11.281Z,0.06
2019-02-06T23:13:38.146Z,0.40
2019-02-06T23:16:04.992Z,-0.23
2019-02-06T23:18:31.842Z,0.37
2019-02-06T23:20:58.671Z,0.43
2019-02-06T23:23:25.513Z,-0.41
2019-02-06T23:25:52.335Z,0.26
2019-02-06T23:28:19.180Z,-0.22
2019-02-06T23:30:46.007Z,0.34
2019-02-06T23:33:12.849Z,0.36
2019-02-06T23:35:39.675Z,-0.24
2019-02-06T23:38:06.521Z,0.10
2019-02-06T23:40:33.362Z,0.15
2019-02-06T23:43:00.210Z,-0.41
2019-02-06T23:45:27.038Z,0.12
2019-02-06T23:47:53.875Z,0.24
2019-02-06T23:50:20.714Z,-0.37
2019-02-06T23:52:47.541Z,0.21
2019-02-06T23:55:14.385Z,0.28
2019-02-06T23:57:41.214Z,-0.12
